Time;durP1;ratioP1;P1;durP2;ratioP2;P2;SDS_P1;SDS_P2;PMS_P1;PMS_P2;Temp;Humidity;BMP_temperature;BMP_pressure;BME280_temperature;BME280_humidity;BME280_pressure;Samples;Min_cycle;Max_cycle;Signal;HPM_P1;HPM_P2
2022/08/19 00:00:51;;;;;;;1.38;1.15;;;23.00;61.90;;;;;;5072534;28;20143;-72
2022/08/19 00:03:18;;;;;;;1.50;1.40;;;23.00;64.30;;;;;;5072154;28;20055;-72
2022/08/19 00:05:45;;;;;;;1.80;1.40;;;22.90;61.80;;;;;;5056478;28;20198;-75
2022/08/19 00:08:12;;;;;;;1.50;1.27;;;23.00;61.90;;;;;;5052583;28;20397;-73
2022/08/19 00:10:38;;;;;;;1.70;1.40;;;23.00;61.90;;;;;;5052207;28;20061;-74
2022/08/19 00:13:05;;;;;;;1.95;1.48;;;22.90;61.80;;;;;;5051912;28;20132;-75
2022/08/19 00:15:32;;;;;;;1.40;1.30;;;22.90;61.80;;;;;;5052326;28;20086;-75
2022/08/19 00:18:00;;;;;;;1.88;1.20;;;22.90;61.80;;;;;;5053888;28;20055;-74
2022/08/19 00:20:27;;;;;;;2.80;1.52;;;22.90;61.80;;;;;;5072013;28;20541;-74
2022/08/19 00:22:54;;;;;;;1.83;1.40;;;23.10;63.00;;;;;;5071969;28;20131;-74
2022/08/19 00:25:20;;;;;;;1.60;1.45;;;22.90;61.80;;;;;;5071021;28;20057;-75
2022/08/19 00:27:47;;;;;;;1.40;1.30;;;22.90;61.80;;;;;;5072177;28;20485;-75
2022/08/19 00:30:14;;;;;;;1.50;1.27;;;22.90;61.80;;;;;;5071921;28;20076;-72
2022/08/19 00:32:41;;;;;;;2.17;1.50;;;23.10;61.80;;;;;;5070249;28;20119;-72
2022/08/19 00:35:10;;;;;;;1.42;1.33;;;22.80;61.70;;;;;;5051823;28;20128;-73
2022/08/19 00:37:37;;;;;;;1.73;1.45;;;22.80;61.70;;;;;;5052681;28;20052;-73
2022/08/19 00:40:05;;;;;;;1.90;1.70;;;22.80;61.70;;;;;;5051498;28;20144;-72
2022/08/19 00:42:32;;;;;;;1.77;1.50;;;22.80;61.70;;;;;;5051631;28;20124;-72
2022/08/19 00:44:59;;;;;;;3.65;1.58;;;22.80;61.70;;;;;;5051773;28;20053;-73
2022/08/19 00:47:26;;;;;;;1.77;1.52;;;22.80;63.60;;;;;;5061338;28;20105;-74
2022/08/19 00:49:54;;;;;;;1.30;1.20;;;22.70;61.60;;;;;;5067621;28;20502;-72
2022/08/19 00:52:26;;;;;;;1.90;1.40;;;22.80;61.60;;;;;;5052635;28;20401;-73
2022/08/19 00:54:53;;;;;;;1.45;1.35;;;22.90;61.70;;;;;;5052858;28;20053;-73
2022/08/19 00:57:23;;;;;;;1.60;1.40;;;22.90;61.70;;;;;;5052642;28;20049;-72
2022/08/19 00:59:52;;;;;;;1.55;1.30;;;22.80;61.60;;;;;;5052657;28;20053;-72
2022/08/19 01:02:18;;;;;;;1.52;1.30;;;22.80;61.70;;;;;;5051000;28;20445;-74
2022/08/19 01:04:45;;;;;;;2.00;1.38;;;22.80;61.60;;;;;;5053233;28;20132;-74
2022/08/19 01:07:12;;;;;;;1.30;1.20;;;22.80;61.60;;;;;;5051423;28;20136;-75
2022/08/19 01:09:40;;;;;;;1.38;1.27;;;22.80;61.60;;;;;;5050896;28;20057;-73
2022/08/19 01:12:07;;;;;;;1.35;1.25;;;22.80;61.60;;;;;;5050877;28;20136;-72
2022/08/19 01:14:34;;;;;;;1.30;1.20;;;22.80;61.50;;;;;;5052223;28;20103;-75
2022/08/19 01:17:01;;;;;;;1.35;1.10;;;22.70;61.50;;;;;;5053391;28;20396;-75
2022/08/19 01:19:29;;;;;;;1.45;1.27;;;22.70;61.50;;;;;;5051145;28;20061;-74
2022/08/19 01:21:58;;;;;;;1.45;1.35;;;22.70;61.50;;;;;;5050715;28;20049;-75
2022/08/19 01:24:27;;;;;;;1.52;1.33;;;22.60;62.90;;;;;;5050795;28;20045;-74
2022/08/19 01:26:54;;;;;;;1.08;1.00;;;22.70;61.50;;;;;;5051114;28;20049;-73
2022/08/19 01:29:21;;;;;;;1.38;1.20;;;22.70;61.50;;;;;;5051119;28;20057;-72
2022/08/19 01:31:51;;;;;;;1.40;1.30;;;22.70;61.50;;;;;;5061461;28;20139;-72
2022/08/19 01:34:18;;;;;;;1.50;1.30;;;22.70;61.40;;;;;;5070924;28;20485;-72
2022/08/19 01:36:47;;;;;;;1.33;1.20;;;22.70;61.40;;;;;;5070541;28;20135;-73
2022/08/19 01:39:15;;;;;;;1.65;1.42;;;22.50;63.30;;;;;;5070960;28;20083;-73
2022/08/19 01:41:43;;;;;;;1.50;1.30;;;22.70;61.40;;;;;;5070708;28;20127;-72
2022/08/19 01:44:10;;;;;;;1.10;1.00;;;22.70;61.40;;;;;;5071551;28;20095;-72
2022/08/19 01:46:36;;;;;;;1.23;1.08;;;22.80;61.40;;;;;;5059634;28;20056;-72
2022/08/19 01:49:03;;;;;;;1.38;1.20;;;22.60;61.40;;;;;;5051795;28;20455;-74
2022/08/19 01:51:30;;;;;;;1.23;1.10;;;22.60;61.30;;;;;;5051616;28;20618;-75
2022/08/19 01:53:57;;;;;;;1.10;1.00;;;22.60;63.10;;;;;;5050477;28;20048;-72
2022/08/19 01:56:25;;;;;;;1.30;1.20;;;22.60;61.30;;;;;;5050766;28;20055;-72
2022/08/19 01:58:55;;;;;;;1.70;1.38;;;22.60;61.40;;;;;;5051559;28;20567;-72
2022/08/19 02:01:22;;;;;;;1.35;1.20;;;22.60;63.40;;;;;;5068902;28;20056;-72
2022/08/19 02:03:49;;;;;;;1.40;1.20;;;22.60;61.30;;;;;;5071514;28;20516;-72
2022/08/19 02:06:16;;;;;;;2.03;1.20;;;22.60;61.30;;;;;;5070314;28;20056;-73
2022/08/19 02:08:45;;;;;;;1.83;1.20;;;22.60;61.30;;;;;;5070371;28;20114;-73
2022/08/19 02:11:19;;;;;;;1.48;1.20;;;22.60;61.30;;;;;;5070410;28;20114;-72
2022/08/19 02:13:46;;;;;;;1.27;1.10;;;22.50;61.20;;;;;;5071635;28;20493;-72
2022/08/19 02:16:14;;;;;;;1.30;1.20;;;22.50;61.20;;;;;;5069719;28;20559;-72
2022/08/19 02:18:40;;;;;;;1.10;1.00;;;22.60;61.20;;;;;;5070595;28;20088;-72
2022/08/19 02:21:07;;;;;;;1.30;1.20;;;22.50;61.20;;;;;;5070271;28;20557;-73
2022/08/19 02:23:34;;;;;;;1.35;1.20;;;22.50;61.20;;;;;;5070131;28;20055;-74
2022/08/19 02:26:00;;;;;;;1.20;1.10;;;22.50;61.20;;;;;;5070414;28;20052;-75
2022/08/19 02:28:27;;;;;;;1.02;0.93;;;22.50;61.20;;;;;;5063647;28;20128;-72
2022/08/19 02:30:54;;;;;;;1.15;1.05;;;22.50;61.20;;;;;;5051308;28;20129;-72
2022/08/19 02:33:22;;;;;;;1.30;1.20;;;22.50;61.20;;;;;;5050178;28;20059;-72
2022/08/19 02:35:48;;;;;;;1.10;1.00;;;22.50;61.10;;;;;;5050303;28;20187;-72
2022/08/19 02:38:26;;;;;;;1.30;1.20;;;22.50;61.10;;;;;;5050330;28;20063;-75
2022/08/19 02:40:54;;;;;;;1.20;1.10;;;22.50;61.10;;;;;;5049927;28;20056;-73
2022/08/19 02:43:21;;;;;;;1.20;1.10;;;22.50;61.20;;;;;;5050061;28;20059;-72
2022/08/19 02:45:48;;;;;;;1.27;1.10;;;22.50;61.20;;;;;;5051232;28;20061;-75
2022/08/19 02:48:17;;;;;;;0.95;0.95;;;22.50;61.10;;;;;;5050346;28;20084;-72
2022/08/19 02:50:45;;;;;;;1.73;1.02;;;22.70;62.70;;;;;;5053759;28;20516;-72
2022/08/19 02:53:11;;;;;;;1.40;1.00;;;22.40;61.10;;;;;;5053427;28;20128;-75
2022/08/19 02:55:44;;;;;;;1.10;1.00;;;22.50;61.10;;;;;;5055125;28;20049;-73
2022/08/19 02:58:11;;;;;;;1.10;1.00;;;22.50;61.10;;;;;;5054943;28;20045;-72
2022/08/19 03:00:43;;;;;;;1.08;0.98;;;22.50;61.10;;;;;;5067682;28;20068;-73
2022/08/19 03:03:10;;;;;;;0.95;0.90;;;22.30;62.90;;;;;;5073314;28;20056;-73
2022/08/19 03:05:37;;;;;;;1.20;1.10;;;22.40;61.10;;;;;;5073422;28;20493;-72
2022/08/19 03:08:05;;;;;;;1.10;1.00;;;22.50;61.10;;;;;;5073682;28;20139;-72
2022/08/19 03:10:32;;;;;;;1.10;1.00;;;22.40;61.00;;;;;;5073409;28;20501;-72
2022/08/19 03:12:59;;;;;;;0.93;0.90;;;22.40;61.00;;;;;;5070525;28;20048;-72
2022/08/19 03:15:26;;;;;;;1.20;1.08;;;22.40;61.00;;;;;;5054613;28;20218;-72
2022/08/19 03:17:54;;;;;;;1.10;1.00;;;22.50;62.70;;;;;;5053589;28;20057;-72
2022/08/19 03:20:20;;;;;;;1.10;1.00;;;22.40;61.00;;;;;;5053335;28;20654;-73
2022/08/19 03:22:47;;;;;;;1.17;1.08;;;22.70;62.80;;;;;;5053364;28;20080;-72
2022/08/19 03:25:16;;;;;;;1.40;1.10;;;22.40;61.00;;;;;;5052932;28;20474;-74
2022/08/19 03:27:43;;;;;;;1.17;1.00;;;22.40;61.00;;;;;;5056272;28;20468;-74
2022/08/19 03:30:11;;;;;;;1.00;0.90;;;22.40;63.50;;;;;;5073014;28;20060;-73
2022/08/19 03:32:38;;;;;;;1.02;0.98;;;22.40;60.90;;;;;;5073078;28;20098;-72
2022/08/19 03:35:05;;;;;;;1.10;1.00;;;22.30;63.00;;;;;;5073206;28;20511;-75
2022/08/19 03:37:32;;;;;;;0.90;0.90;;;22.40;61.00;;;;;;5072915;28;20056;-72
2022/08/19 03:39:59;;;;;;;0.90;0.90;;;22.30;63.00;;;;;;5072698;28;20079;-72
2022/08/19 03:42:27;;;;;;;1.20;1.10;;;22.40;60.90;;;;;;5063485;28;20049;-73
2022/08/19 03:44:54;;;;;;;0.93;0.90;;;22.30;60.90;;;;;;5053811;28;20387;-74
2022/08/19 03:47:21;;;;;;;1.00;0.90;;;24.20;63.50;;;;;;5053779;28;20156;-72
2022/08/19 03:49:47;;;;;;;0.90;0.90;;;22.40;60.90;;;;;;5054170;28;20063;-73
2022/08/19 03:52:15;;;;;;;1.40;0.88;;;22.30;60.80;;;;;;5052638;28;20056;-73
2022/08/19 03:54:42;;;;;;;0.93;0.90;;;22.30;60.80;;;;;;5052758;28;20064;-73
2022/08/19 03:57:10;;;;;;;1.45;0.90;;;22.30;60.80;;;;;;5052531;28;20059;-74
2022/08/19 03:59:38;;;;;;;1.10;1.00;;;22.30;60.80;;;;;;5053431;28;20057;-74
2022/08/19 04:02:09;;;;;;;1.00;0.90;;;22.30;60.80;;;;;;5052390;28;20409;-72
2022/08/19 04:04:36;;;;;;;1.08;0.98;;;22.30;60.80;;;;;;5053814;28;20147;-73
2022/08/19 04:07:04;;;;;;;0.77;0.70;;;22.20;60.80;;;;;;5053824;28;20049;-72
2022/08/19 04:09:30;;;;;;;0.80;0.80;;;22.30;62.60;;;;;;5053605;28;20049;-72
2022/08/19 04:11:57;;;;;;;0.93;0.90;;;22.20;60.70;;;;;;5052342;28;20055;-73
2022/08/19 04:14:25;;;;;;;0.80;0.80;;;22.20;60.70;;;;;;5069845;28;20048;-73
2022/08/19 04:16:53;;;;;;;0.80;0.80;;;22.30;60.70;;;;;;5072497;28;20615;-72
2022/08/19 04:19:20;;;;;;;0.80;0.80;;;22.30;60.70;;;;;;5072351;28;20052;-72
2022/08/19 04:21:48;;;;;;;1.13;1.05;;;22.30;60.70;;;;;;5072227;28;20052;-72
2022/08/19 04:24:15;;;;;;;0.93;0.85;;;22.40;62.80;;;;;;5071621;28;20127;-73
2022/08/19 04:26:42;;;;;;;1.00;0.90;;;22.00;62.60;;;;;;5066656;28;20136;-73
2022/08/19 04:29:10;;;;;;;0.80;0.80;;;22.30;60.70;;;;;;5052064;28;20053;-73
2022/08/19 04:31:37;;;;;;;1.20;0.98;;;22.20;62.70;;;;;;5051740;28;20052;-74
2022/08/19 04:34:06;;;;;;;0.85;0.85;;;22.20;60.70;;;;;;5051725;28;20049;-74
2022/08/19 04:36:36;;;;;;;0.90;0.90;;;22.30;60.70;;;;;;5051750;28;20475;-72
2022/08/19 04:39:05;;;;;;;1.05;1.00;;;22.30;60.70;;;;;;5051808;28;20131;-74
2022/08/19 04:44:17;;;;;;;0.80;0.80;;;22.20;60.70;;;;;;5071593;28;20486;-74
2022/08/19 04:46:44;;;;;;;1.00;0.95;;;22.10;62.50;;;;;;5071623;28;20072;-74
2022/08/19 04:49:12;;;;;;;0.80;0.80;;;22.20;60.60;;;;;;5071743;28;20062;-74
2022/08/19 04:51:42;;;;;;;0.80;0.80;;;22.20;60.60;;;;;;5071459;28;20515;-74
2022/08/19 04:54:08;;;;;;;0.93;0.90;;;22.20;60.60;;;;;;5071536;28;20509;-72
2022/08/19 04:56:35;;;;;;;0.70;0.70;;;21.40;62.40;;;;;;5055263;28;20132;-73
2022/08/19 04:59:04;;;;;;;0.80;0.80;;;22.20;60.60;;;;;;5051305;28;20135;-73
2022/08/19 05:01:31;;;;;;;0.80;0.80;;;22.20;60.60;;;;;;5034990;28;20098;-72
2022/08/19 05:03:59;;;;;;;0.90;0.90;;;22.20;60.60;;;;;;5051360;28;20052;-74
2022/08/19 05:06:28;;;;;;;0.80;0.80;;;20.90;61.90;;;;;;5050883;28;20151;-74
2022/08/19 05:08:55;;;;;;;1.17;0.90;;;22.10;60.50;;;;;;5051375;28;20409;-74
2022/08/19 05:11:26;;;;;;;1.10;1.00;;;22.20;60.60;;;;;;5050907;28;20067;-72
2022/08/19 05:13:52;;;;;;;1.10;1.00;;;22.30;60.60;;;;;;5052520;28;20474;-72
2022/08/19 05:16:20;;;;;;;1.10;1.00;;;22.30;60.60;;;;;;5055959;28;20048;-74
2022/08/19 05:24:18;;;;;;;0.85;0.85;;;22.10;60.50;;;;;;5063229;28;20053;-71
2022/08/19 05:26:46;;;;;;;1.13;1.00;;;22.10;60.60;;;;;;5051029;28;20053;-72
2022/08/19 05:29:13;;;;;;;0.90;0.90;;;22.10;60.50;;;;;;5051177;28;20497;-72
2022/08/19 05:31:39;;;;;;;0.90;0.90;;;22.10;60.50;;;;;;5051000;28;20084;-74
2022/08/19 05:34:06;;;;;;;1.08;1.00;;;22.10;60.50;;;;;;5052007;28;20474;-74
2022/08/19 05:36:38;;;;;;;0.95;0.93;;;22.10;60.50;;;;;;5051094;28;20067;-74
2022/08/19 05:39:05;;;;;;;1.10;1.00;;;22.10;60.50;;;;;;5059887;28;20110;-74
2022/08/19 05:41:32;;;;;;;0.85;0.85;;;22.30;60.60;;;;;;5070540;28;20144;-74
2022/08/19 05:43:59;;;;;;;0.82;0.82;;;22.10;62.70;;;;;;5070623;28;20060;-74
2022/08/19 05:46:25;;;;;;;0.80;0.80;;;22.10;60.50;;;;;;5072086;28;20400;-74
2022/08/19 05:48:53;;;;;;;0.80;0.80;;;22.10;60.50;;;;;;5071019;28;20080;-74
2022/08/19 05:51:20;;;;;;;0.75;0.75;;;24.90;63.90;;;;;;5069519;28;20083;-72
2022/08/19 05:53:48;;;;;;;0.93;0.90;;;22.10;60.40;;;;;;5054903;28;20076;-74
2022/08/19 05:56:15;;;;;;;0.80;0.80;;;22.10;60.40;;;;;;5049940;28;20137;-74
2022/08/19 05:58:42;;;;;;;0.90;0.90;;;22.10;60.40;;;;;;5050725;28;20063;-74
2022/08/19 06:01:11;;;;;;;1.08;1.00;;;22.10;60.40;;;;;;5050230;28;20053;-72
2022/08/19 06:03:39;;;;;;;1.30;0.80;;;22.10;63.40;;;;;;5050688;28;20053;-74
2022/08/19 06:06:07;;;;;;;1.00;0.90;;;22.10;60.40;;;;;;5050222;28;20060;-72
2022/08/19 06:08:34;;;;;;;0.80;0.80;;;22.10;60.40;;;;;;5066719;28;20126;-72
2022/08/19 06:11:15;;;;;;;0.75;0.75;;;22.50;62.90;;;;;;5070142;28;20048;-74
2022/08/19 06:13:41;;;;;;;1.83;0.98;;;22.10;60.30;;;;;;5071551;28;20053;-74
2022/08/19 06:16:08;;;;;;;2.00;0.90;;;22.10;60.40;;;;;;5070556;28;20055;-72
2022/08/19 06:18:35;;;;;;;0.90;0.90;;;22.00;60.30;;;;;;5071463;28;20124;-71
2022/08/19 06:21:04;;;;;;;1.33;1.20;;;22.00;60.40;;;;;;5066289;28;20056;-71
2022/08/19 06:23:31;;;;;;;1.10;1.00;;;22.10;60.40;;;;;;5051834;28;20079;-72
2022/08/19 06:25:57;;;;;;;1.40;1.30;;;22.00;60.40;;;;;;5055443;28;20136;-74
2022/08/19 06:28:25;;;;;;;1.10;1.00;;;22.00;60.40;;;;;;5055503;28;20462;-72
2022/08/19 06:30:52;;;;;;;1.10;1.00;;;22.00;60.40;;;;;;5055130;28;20132;-73
2022/08/19 06:33:19;;;;;;;1.23;1.10;;;22.00;60.40;;;;;;5055277;28;20079;-72
2022/08/19 06:35:45;;;;;;;1.67;1.10;;;22.00;60.50;;;;;;5058747;28;20123;-72
2022/08/19 06:38:12;;;;;;;1.10;1.00;;;22.00;60.40;;;;;;5074221;28;20539;-73
2022/08/19 06:40:39;;;;;;;1.55;1.00;;;22.10;60.50;;;;;;5073606;28;20062;-72
2022/08/19 06:43:05;;;;;;;1.05;0.98;;;22.10;60.80;;;;;;5075304;28;20127;-74
2022/08/19 06:45:34;;;;;;;1.50;1.20;;;22.10;60.40;;;;;;5073841;28;20139;-74
2022/08/19 06:48:01;;;;;;;1.08;0.98;;;22.20;60.40;;;;;;5074901;28;20358;-73
2022/08/19 06:50:27;;;;;;;1.40;1.00;;;22.30;60.40;;;;;;5061944;28;20131;-74
2022/08/19 06:52:54;;;;;;;1.10;1.00;;;22.40;61.10;;;;;;5053930;28;20078;-71
2022/08/19 06:55:21;;;;;;;1.23;1.13;;;22.40;60.30;;;;;;5053917;28;20132;-73
2022/08/19 06:57:47;;;;;;;1.13;1.00;;;22.80;63.10;;;;;;5053790;28;20128;-72
2022/08/19 07:00:15;;;;;;;1.08;0.98;;;23.00;62.30;;;;;;5053471;28;20458;-71
2022/08/19 07:02:43;;;;;;;1.30;1.10;;;22.90;60.10;;;;;;5054788;28;20092;-74
2022/08/19 07:05:10;;;;;;;1.48;1.10;;;22.80;60.00;;;;;;5055747;28;20075;-72
2022/08/19 07:07:37;;;;;;;1.27;1.10;;;22.90;59.80;;;;;;5074808;28;20051;-71
2022/08/19 07:10:04;;;;;;;1.20;1.10;;;23.00;59.60;;;;;;5060315;28;20116;-73
2022/08/19 07:12:33;;;;;;;1.10;0.98;;;23.00;59.40;;;;;;5053517;28;20501;-73
2022/08/19 07:15:00;;;;;;;1.30;1.13;;;23.10;59.30;;;;;;5053415;28;20055;-72
2022/08/19 07:17:27;;;;;;;1.20;1.10;;;23.10;59.20;;;;;;5053723;28;20110;-72
2022/08/19 07:19:55;;;;;;;1.20;1.10;;;21.20;58.00;;;;;;5056440;28;20489;-72
2022/08/19 07:22:22;;;;;;;0.95;0.95;;;23.20;59.10;;;;;;5059420;28;20052;-72
2022/08/19 07:24:49;;;;;;;1.35;1.00;;;23.30;59.00;;;;;;5053039;28;20518;-72
2022/08/19 07:27:16;;;;;;;1.40;1.10;;;23.30;59.00;;;;;;5052605;28;20175;-72
2022/08/19 07:29:43;;;;;;;1.20;1.10;;;23.30;58.90;;;;;;5051958;28;20063;-71
2022/08/19 07:32:11;;;;;;;1.10;1.00;;;23.30;58.80;;;;;;5052682;28;20144;-72
2022/08/19 07:34:38;;;;;;;2.70;1.10;;;23.40;58.80;;;;;;5053902;28;20461;-72
2022/08/19 07:37:06;;;;;;;2.13;1.30;;;23.30;58.70;;;;;;5052903;28;20099;-71
2022/08/19 07:39:34;;;;;;;4.53;1.27;;;23.40;58.70;;;;;;5052919;28;20516;-71
2022/08/19 07:42:01;;;;;;;2.00;1.30;;;23.50;58.70;;;;;;5053916;28;20079;-71
2022/08/19 07:44:28;;;;;;;1.92;1.27;;;23.50;58.60;;;;;;5051261;28;20436;-72
2022/08/19 07:46:56;;;;;;;2.72;1.25;;;23.50;58.60;;;;;;5052865;28;20049;-72
2022/08/19 07:49:23;;;;;;;5.28;1.60;;;23.50;58.50;;;;;;5054726;28;20383;-72
2022/08/19 07:51:53;;;;;;;2.92;1.40;;;23.50;58.50;;;;;;5051643;28;20155;-72
2022/08/19 07:54:21;;;;;;;2.10;1.30;;;23.60;58.60;;;;;;5051331;28;20080;-72
2022/08/19 07:56:49;;;;;;;2.10;1.20;;;23.60;58.50;;;;;;5051944;28;20059;-72
2022/08/19 07:59:17;;;;;;;2.08;1.35;;;23.60;58.50;;;;;;5053033;28;20486;-71
2022/08/19 08:01:44;;;;;;;2.25;1.45;;;23.60;58.50;;;;;;5051835;28;20098;-72
2022/08/19 08:09:54;;;;;;;1.88;1.35;;;23.60;58.50;;;;;;4974058;28;20393;-72
2022/08/19 08:12:24;;;;;;;2.00;1.20;;;23.60;58.50;;;;;;4973550;28;20055;-73
2022/08/19 08:14:52;;;;;;;2.22;1.40;;;22.80;59.90;;;;;;5007057;28;20047;-72
2022/08/19 08:17:22;;;;;;;2.15;1.40;;;23.60;58.40;;;;;;5052685;28;20148;-72
2022/08/19 08:19:50;;;;;;;1.50;1.20;;;23.60;58.40;;;;;;5050100;28;20484;-72
2022/08/19 08:25:01;;;;;;;1.80;1.40;;;23.70;58.50;;;;;;5052020;28;20052;-72
2022/08/19 08:27:30;;;;;;;3.60;1.40;;;23.60;58.40;;;;;;5050210;28;20135;-72
2022/08/19 08:29:57;;;;;;;2.08;1.40;;;23.80;61.10;;;;;;5051736;28;20071;-72
2022/08/19 08:32:24;;;;;;;3.25;1.75;;;23.70;58.40;;;;;;5050641;28;20135;-73
2022/08/19 08:34:51;;;;;;;1.42;1.13;;;23.70;58.30;;;;;;5051253;28;20080;-72
2022/08/19 08:37:17;;;;;;;2.10;1.35;;;23.70;58.40;;;;;;5051339;28;20059;-72
2022/08/19 08:39:44;;;;;;;2.85;1.30;;;23.70;58.20;;;;;;5050532;28;20053;-72
2022/08/19 08:42:16;;;;;;;2.05;1.40;;;23.80;58.20;;;;;;5050322;28;20057;-72
2022/08/19 08:44:47;;;;;;;1.80;1.25;;;23.80;58.20;;;;;;5050511;28;20115;-72
2022/08/19 08:47:15;;;;;;;1.88;1.30;;;23.90;60.80;;;;;;5051362;28;20040;-72
2022/08/19 08:49:44;;;;;;;2.25;1.20;;;23.80;58.20;;;;;;5050329;28;20080;-72
2022/08/19 08:52:14;;;;;;;2.53;1.40;;;23.90;58.20;;;;;;5049012;28;20055;-71
2022/08/19 08:54:42;;;;;;;2.08;1.30;;;24.00;58.30;;;;;;5051050;28;20111;-71
2022/08/19 08:57:13;;;;;;;1.85;1.38;;;23.80;58.10;;;;;;5050032;28;20055;-71
2022/08/19 08:59:41;;;;;;;1.80;1.40;;;23.80;58.10;;;;;;5052299;28;20076;-70
2022/08/19 09:02:07;;;;;;;1.83;1.30;;;23.80;58.20;;;;;;5052492;28;20092;-71
2022/08/19 09:04:35;;;;;;;3.33;1.50;;;23.80;60.30;;;;;;5056039;28;20049;-72
2022/08/19 09:07:11;;;;;;;2.47;1.40;;;23.80;58.20;;;;;;5051057;28;20049;-72
2022/08/19 09:09:41;;;;;;;3.65;1.67;;;23.80;58.10;;;;;;5051265;28;20059;-72
2022/08/19 09:12:10;;;;;;;14.30;3.92;;;23.80;58.20;;;;;;5051561;28;20132;-75
2022/08/19 09:14:43;;;;;;;13.88;3.25;;;23.80;58.30;;;;;;5048403;28;20076;-72
2022/08/19 09:17:10;;;;;;;11.32;3.20;;;23.80;58.30;;;;;;5052829;28;20053;-72
2022/08/19 09:19:36;;;;;;;12.32;3.40;;;23.80;58.30;;;;;;5049400;28;20493;-74
2022/08/19 09:22:05;;;;;;;13.05;3.40;;;23.80;58.30;;;;;;5053067;28;20466;-72
2022/08/19 09:24:32;;;;;;;13.20;3.17;;;23.90;58.40;;;;;;5051804;28;20045;-73
2022/08/19 09:26:58;;;;;;;8.13;2.88;;;23.90;58.40;;;;;;5050801;28;20048;-72
2022/08/19 09:29:25;;;;;;;10.95;3.25;;;23.90;58.40;;;;;;5051092;28;20413;-73
2022/08/19 09:31:53;;;;;;;9.85;2.80;;;23.90;58.40;;;;;;5067726;28;20131;-71
2022/08/19 09:34:20;;;;;;;8.23;2.88;;;23.90;58.30;;;;;;5070980;28;20056;-72
2022/08/19 09:36:46;;;;;;;8.50;2.50;;;23.90;58.30;;;;;;5059835;28;20497;-72
2022/08/19 09:39:13;;;;;;;8.82;2.80;;;23.90;58.30;;;;;;5049871;28;20087;-71
2022/08/19 09:41:40;;;;;;;9.50;2.80;;;24.00;58.30;;;;;;5048409;28;20456;-72
2022/08/19 09:44:07;;;;;;;6.82;2.38;;;24.00;58.30;;;;;;5052836;28;20135;-74
2022/08/19 09:46:34;;;;;;;6.28;2.60;;;24.00;58.30;;;;;;5069740;28;20435;-74
2022/08/19 09:49:02;;;;;;;7.90;2.55;;;24.00;58.30;;;;;;5069785;28;20058;-74
2022/08/19 09:51:29;;;;;;;8.95;3.53;;;24.10;58.30;;;;;;5069793;28;20110;-74
2022/08/19 09:53:57;;;;;;;6.85;2.50;;;24.10;58.30;;;;;;5070325;28;20461;-74
2022/08/19 09:56:23;;;;;;;6.72;2.53;;;24.20;60.80;;;;;;5071266;28;20083;-74
2022/08/19 09:58:50;;;;;;;7.90;2.67;;;24.10;58.30;;;;;;5058941;28;20063;-73
2022/08/19 10:01:18;;;;;;;6.07;2.35;;;24.10;58.30;;;;;;5050291;28;20061;-71
2022/08/19 10:03:47;;;;;;;5.30;2.33;;;24.10;58.20;;;;;;5050622;28;20060;-71
2022/08/19 10:06:15;;;;;;;5.45;2.45;;;24.10;58.20;;;;;;5050155;28;20055;-72
2022/08/19 10:08:42;;;;;;;5.88;2.50;;;24.10;58.10;;;;;;5050703;28;20418;-71
2022/08/19 10:11:09;;;;;;;4.68;2.08;;;24.10;58.10;;;;;;5050243;28;20053;-71
2022/08/19 10:13:36;;;;;;;4.75;2.33;;;24.00;60.60;;;;;;5065595;28;20059;-71
2022/08/19 10:16:05;;;;;;;4.55;2.40;;;24.10;58.10;;;;;;5062648;28;20080;-74
2022/08/19 10:18:33;;;;;;;8.63;2.17;;;24.10;58.10;;;;;;5050924;28;20059;-74
2022/08/19 10:21:05;;;;;;;7.18;2.53;;;24.20;58.10;;;;;;5050462;28;20136;-74
2022/08/19 10:23:33;;;;;;;5.28;2.30;;;24.20;58.20;;;;;;5051121;28;20506;-74
2022/08/19 10:26:00;;;;;;;5.70;2.35;;;24.20;58.20;;;;;;5054677;28;20045;-74
2022/08/19 10:28:27;;;;;;;5.43;2.20;;;24.20;58.70;;;;;;5070690;28;20135;-73
2022/08/19 10:30:54;;;;;;;5.30;2.20;;;24.20;58.10;;;;;;5070360;28;20056;-74
2022/08/19 10:33:20;;;;;;;5.35;3.03;;;24.20;60.50;;;;;;5070937;28;20132;-74
2022/08/19 10:35:48;;;;;;;4.28;2.38;;;24.20;58.10;;;;;;5072046;28;20416;-74
2022/08/19 10:38:15;;;;;;;5.63;2.47;;;24.20;58.10;;;;;;5070548;28;20053;-74
2022/08/19 10:40:43;;;;;;;6.00;2.30;;;24.20;58.10;;;;;;5056393;28;20055;-74
2022/08/19 10:43:10;;;;;;;4.07;2.20;;;24.30;58.10;;;;;;5051806;28;20061;-74
2022/08/19 10:45:37;;;;;;;5.22;2.50;;;24.30;58.10;;;;;;5050602;28;20132;-72
2022/08/19 10:48:04;;;;;;;4.45;2.17;;;24.30;58.10;;;;;;5050618;28;20136;-74
2022/08/19 10:53:15;;;;;;;3.72;1.70;;;24.30;58.10;;;;;;5052335;28;20088;-71
2022/08/19 10:58:29;;;;;;;5.78;1.98;;;25.20;60.60;;;;;;5071191;28;20048;-72
2022/08/19 11:00:57;;;;;;;4.45;2.20;;;24.30;58.10;;;;;;5071216;28;20131;-74
2022/08/19 11:03:24;;;;;;;4.10;1.90;;;24.30;58.10;;;;;;5070061;28;20162;-73
2022/08/19 11:05:59;;;;;;;4.53;1.90;;;24.30;58.10;;;;;;5070311;28;20063;-71
2022/08/19 11:08:26;;;;;;;4.53;1.95;;;24.30;58.00;;;;;;5056117;28;20065;-71
2022/08/19 11:10:56;;;;;;;5.38;1.95;;;24.30;58.10;;;;;;5051972;28;20059;-71
2022/08/19 11:13:24;;;;;;;3.08;2.00;;;24.40;58.10;;;;;;5053312;28;20134;-72
2022/08/19 11:15:57;;;;;;;3.65;2.00;;;24.40;58.00;;;;;;5054854;28;20053;-74
2022/08/19 11:18:24;;;;;;;3.17;1.80;;;24.40;58.00;;;;;;5054238;28;20067;-73
2022/08/19 11:20:51;;;;;;;2.42;1.50;;;24.40;58.00;;;;;;5055486;28;20136;-74
2022/08/19 11:23:18;;;;;;;3.80;1.70;;;24.40;58.00;;;;;;5074928;28;20127;-71
2022/08/19 11:25:45;;;;;;;3.22;1.75;;;24.40;58.00;;;;;;5074082;28;20049;-72
2022/08/19 11:28:13;;;;;;;2.67;1.70;;;24.40;58.10;;;;;;5073385;28;20562;-71
2022/08/19 11:30:40;;;;;;;3.17;1.77;;;24.40;58.10;;;;;;5073138;28;20052;-71
2022/08/19 11:33:07;;;;;;;2.83;1.85;;;24.40;58.10;;;;;;5072848;28;20420;-72
2022/08/19 11:35:33;;;;;;;3.33;1.65;;;24.40;58.10;;;;;;5064253;28;20060;-72
2022/08/19 11:38:02;;;;;;;3.92;1.98;;;24.40;58.10;;;;;;5053347;28;20101;-72
2022/08/19 11:40:29;;;;;;;3.40;2.00;;;24.40;58.10;;;;;;5052855;28;20061;-73
2022/08/19 11:42:56;;;;;;;2.50;1.90;;;24.10;58.00;;;;;;5053200;28;20060;-74
2022/08/19 11:45:24;;;;;;;3.53;2.22;;;24.30;58.10;;;;;;5053484;28;20123;-72
2022/08/19 11:47:51;;;;;;;3.03;1.90;;;24.40;58.10;;;;;;5052693;28;20133;-73
2022/08/19 11:50:18;;;;;;;3.38;1.98;;;24.30;58.10;;;;;;5069552;28;20048;-72
2022/08/19 11:52:45;;;;;;;3.25;1.83;;;24.20;58.00;;;;;;5074009;28;20048;-72
2022/08/19 11:55:12;;;;;;;3.35;1.95;;;24.30;58.10;;;;;;5074067;28;20474;-74
2022/08/19 11:57:40;;;;;;;4.78;1.63;;;24.40;58.50;;;;;;5073741;28;20052;-74
2022/08/19 12:00:08;;;;;;;3.20;1.95;;;24.20;60.00;;;;;;5073266;28;20049;-74
2022/08/19 12:02:36;;;;;;;2.30;1.48;;;24.30;58.20;;;;;;5069611;28;20053;-74
2022/08/19 12:05:03;;;;;;;3.70;2.10;;;24.30;58.20;;;;;;5053802;28;20506;-71
2022/08/19 12:07:32;;;;;;;4.22;1.75;;;24.30;58.30;;;;;;5052745;28;20135;-73
2022/08/19 12:09:59;;;;;;;3.13;1.67;;;25.60;61.00;;;;;;5052766;28;20512;-74
2022/08/19 12:12:26;;;;;;;2.70;1.80;;;24.30;58.30;;;;;;5053240;28;20079;-72
2022/08/19 12:14:56;;;;;;;2.92;1.55;;;24.30;58.30;;;;;;5052017;28;20087;-72
2022/08/19 12:17:23;;;;;;;3.33;1.80;;;24.30;58.30;;;;;;5064390;28;20079;-74
2022/08/19 12:19:51;;;;;;;2.45;1.80;;;24.30;58.30;;;;;;5072820;28;20052;-73
2022/08/19 12:22:20;;;;;;;2.65;1.70;;;24.30;58.30;;;;;;5072558;28;20135;-73
2022/08/19 12:24:47;;;;;;;3.28;1.60;;;24.30;58.30;;;;;;5072535;28;20060;-74
2022/08/19 12:27:14;;;;;;;2.80;1.75;;;24.30;58.30;;;;;;5072691;28;20052;-74
2022/08/19 12:29:41;;;;;;;2.67;1.70;;;24.30;58.30;;;;;;5072695;28;20056;-74
2022/08/19 12:32:08;;;;;;;3.78;2.03;;;24.40;58.40;;;;;;5055018;28;20055;-74
2022/08/19 12:34:36;;;;;;;2.22;1.60;;;24.30;58.30;;;;;;5053666;28;20489;-74
2022/08/19 12:37:05;;;;;;;3.63;1.63;;;24.30;58.40;;;;;;5053099;28;20135;-71
2022/08/19 12:39:35;;;;;;;2.13;1.58;;;24.20;60.70;;;;;;5052029;28;20147;-71
2022/08/19 12:42:02;;;;;;;2.40;1.70;;;24.30;58.40;;;;;;5051728;28;20557;-72
2022/08/19 12:44:28;;;;;;;2.17;1.58;;;24.20;58.40;;;;;;5057392;28;20135;-72
2022/08/19 12:46:55;;;;;;;2.97;1.70;;;24.20;58.40;;;;;;5072210;28;20554;-72
2022/08/19 12:49:22;;;;;;;3.03;1.83;;;24.20;58.50;;;;;;5072829;28;20075;-72
2022/08/19 12:51:49;;;;;;;2.53;1.60;;;24.20;58.40;;;;;;5071767;28;20111;-74
2022/08/19 12:54:17;;;;;;;2.83;1.90;;;24.20;58.50;;;;;;5072190;28;20080;-74
2022/08/19 12:56:44;;;;;;;2.10;1.77;;;24.20;58.50;;;;;;5073565;28;20056;-71
2022/08/19 12:59:11;;;;;;;2.38;1.63;;;24.20;58.60;;;;;;5041808;28;20445;-73
2022/08/19 13:01:38;;;;;;;3.03;1.85;;;24.20;58.60;;;;;;5051143;28;20060;-71
2022/08/19 13:04:05;;;;;;;2.13;1.65;;;24.30;60.70;;;;;;5052322;28;20057;-74
2022/08/19 13:06:32;;;;;;;2.33;1.70;;;22.80;57.80;;;;;;5052015;28;20052;-74
2022/08/19 13:08:59;;;;;;;3.25;1.70;;;24.10;58.60;;;;;;5051786;28;20135;-74